createdAt,value
2019-02-27T00:00:45.147Z,102963.17
2019-02-27T00:03:13.947Z,102968.58
2019-02-27T00:05:42.548Z,102967.83
2019-02-27T00:08:11.125Z,102973.28
2019-02-27T00:10:39.889Z,102970.75
2019-02-27T00:13:08.613Z,102964.94
2019-02-27T00:15:38.047Z,102970.41
2019-02-27T00:18:07.265Z,102967.03
2019-02-27T00:20:37.056Z,102976.88
2019-02-27T00:23:06.317Z,102972.30
2019-02-27T00:25:36.083Z,102971.84
2019-02-27T00:28:05.348Z,102971.51
2019-02-27T00:30:37.962Z,102968.31
2019-02-27T00:33:04.536Z,102967.16
2019-02-27T00:35:38.855Z,102970.73
2019-02-27T00:38:03.454Z,102962.08
2019-02-27T00:40:31.986Z,102957.61
2019-02-27T00:43:02.853Z,102951.78
2019-02-27T00:45:31.613Z,102945.09
2019-02-27T00:48:00.096Z,102949.39
2019-02-27T00:50:28.631Z,102942.68
2019-02-27T00:53:00.877Z,102943.55
2019-02-27T00:55:30.871Z,102945.26
2019-02-27T00:57:59.446Z,102939.63
2019-02-27T01:00:28.033Z,102936.22
2019-02-27T01:02:56.735Z,102947.69
2019-02-27T01:05:25.378Z,102945.27
2019-02-27T01:07:54.792Z,102940.27
2019-02-27T01:10:23.434Z,102942.77
2019-02-27T01:12:52.650Z,102925.74
2019-02-27T01:15:21.257Z,102926.89
2019-02-27T01:17:49.893Z,102922.77
2019-02-27T01:20:18.484Z,102918.91
2019-02-27T01:22:47.062Z,102919.54
2019-02-27T01:25:15.948Z,102916.94
2019-02-27T01:27:44.559Z,102920.94
2019-02-27T01:30:15.571Z,102920.07
2019-02-27T01:32:44.268Z,102920.95
2019-02-27T01:35:17.502Z,102918.41
2019-02-27T01:37:44.333Z,102916.35
2019-02-27T01:40:17.909Z,102919.53
2019-02-27T01:42:46.643Z,102911.60
2019-02-27T01:45:20.650Z,102906.84
2019-02-27T01:47:46.513Z,102900.89
2019-02-27T01:50:29.731Z,102898.78
2019-02-27T01:52:58.252Z,102895.73
2019-02-27T01:55:28.313Z,102891.69
2019-02-27T01:57:57.055Z,102895.93
2019-02-27T02:00:25.855Z,102892.95
2019-02-27T02:02:55.383Z,102896.92
2019-02-27T02:05:27.160Z,102890.67
2019-02-27T02:07:55.666Z,102897.95
2019-02-27T02:10:27.991Z,102894.31
2019-02-27T02:13:18.659Z,102892.81
2019-02-27T02:16:02.175Z,102890.23
2019-02-27T02:18:51.960Z,102874.92
2019-02-27T02:21:23.570Z,102868.66
2019-02-27T02:24:20.906Z,102863.33
2019-02-27T02:27:08.278Z,102852.03
2019-02-27T02:29:54.416Z,102848.41
2019-02-27T02:32:25.927Z,102837.12
2019-02-27T02:35:14.795Z,102838.72
2019-02-27T02:37:48.469Z,102836.61
2019-02-27T02:40:32.107Z,102833.19
2019-02-27T02:43:41.424Z,102827.98
2019-02-27T02:46:13.322Z,102836.37
2019-02-27T02:49:08.029Z,102833.87
2019-02-27T02:51:50.414Z,102831.41
2019-02-27T02:54:27.934Z,102824.75
2019-02-27T02:57:08.298Z,102815.28
2019-02-27T03:00:04.214Z,102812.97
2019-02-27T03:02:42.215Z,102798.09
2019-02-27T03:05:24.307Z,102794.03
2019-02-27T03:08:01.801Z,102790.83
2019-02-27T03:10:42.569Z,102788.45
2019-02-27T03:13:24.340Z,102785.20
2019-02-27T03:16:17.012Z,102784.48
2019-02-27T03:19:05.063Z,102776.98
2019-02-27T03:21:42.557Z,102780.23
2019-02-27T03:24:45.977Z,102778.46
2019-02-27T03:27:17.488Z,102776.50
2019-02-27T03:29:54.636Z,102763.53
2019-02-27T03:32:26.131Z,102761.95
2019-02-27T03:35:27.983Z,102759.27
2019-02-27T03:37:57.919Z,102758.14
2019-02-27T03:40:48.965Z,102759.00
2019-02-27T03:43:38.350Z,102760.41
2019-02-27T03:46:24.683Z,102755.42
2019-02-27T03:49:04.642Z,102758.94
2019-02-27T03:51:48.432Z,102758.73
2019-02-27T03:54:21.315Z,102747.77
2019-02-27T03:56:56.252Z,102757.54
2019-02-27T03:59:27.926Z,102758.90
2019-02-27T04:02:06.308Z,102752.32
2019-02-27T04:04:50.523Z,102747.99
2019-02-27T04:07:25.125Z,102743.15
2019-02-27T04:09:55.399Z,102742.69
2019-02-27T04:12:23.883Z,102747.78
2019-02-27T04:14:52.511Z,102747.02
2019-02-27T04:17:27.832Z,102752.40
2019-02-27T04:19:57.767Z,102747.76
2019-02-27T04:22:26.795Z,102751.35
2019-02-27T04:24:56.779Z,102741.59
2019-02-27T04:27:25.763Z,102748.67
2019-02-27T04:29:54.445Z,102752.55
2019-02-27T04:32:23.080Z,102755.97
2019-02-27T04:34:51.598Z,102762.40
2019-02-27T04:37:20.411Z,102753.52
2019-02-27T04:39:49.636Z,102748.57
2019-02-27T04:42:18.191Z,102743.41
2019-02-27T04:44:46.706Z,102734.02
2019-02-27T04:47:15.500Z,102738.87
2019-02-27T04:49:44.072Z,102737.28
2019-02-27T04:52:12.554Z,102732.79
2019-02-27T04:54:42.130Z,102738.55
2019-02-27T04:57:10.967Z,102732.08
2019-02-27T04:59:39.554Z,102734.69
2019-02-27T05:02:08.228Z,102732.98
2019-02-27T05:04:36.842Z,102740.56
2019-02-27T05:07:05.411Z,102742.19
2019-02-27T05:09:34.670Z,102748.66
2019-02-27T05:12:03.173Z,102735.74
2019-02-27T05:14:31.746Z,102732.06
2019-02-27T05:17:00.597Z,102728.61
2019-02-27T05:19:29.217Z,102719.00
2019-02-27T05:21:57.686Z,102715.81
2019-02-27T05:24:29.211Z,102722.23
2019-02-27T05:26:58.121Z,102718.34
2019-02-27T05:29:28.224Z,102707.87
2019-02-27T05:31:56.752Z,102710.12
2019-02-27T05:34:25.200Z,102719.53
2019-02-27T05:36:53.810Z,102718.20
2019-02-27T05:39:22.256Z,102723.55
2019-02-27T05:41:50.889Z,102727.20
2019-02-27T05:44:22.118Z,102733.31
2019-02-27T05:46:49.661Z,102731.97
2019-02-27T05:49:18.212Z,102722.45
2019-02-27T05:51:46.654Z,102721.56
2019-02-27T05:54:15.388Z,102721.61
2019-02-27T05:56:43.882Z,102717.71
2019-02-27T05:59:12.475Z,102709.82
2019-02-27T06:01:41.011Z,102709.61
2019-02-27T06:04:09.666Z,102707.74
2019-02-27T06:06:38.257Z,102700.59
2019-02-27T06:09:10.079Z,102705.74
2019-02-27T06:11:37.492Z,102705.42
2019-02-27T06:14:06.066Z,102709.77
2019-02-27T06:16:37.187Z,102698.97
2019-02-27T06:19:06.122Z,102707.17
2019-02-27T06:21:38.871Z,102710.47
2019-02-27T06:24:11.617Z,102701.98
2019-02-27T06:26:37.838Z,102704.53
2019-02-27T06:29:06.394Z,102706.33
2019-02-27T06:31:38.795Z,102696.23
2019-02-27T06:34:05.286Z,102697.27
2019-02-27T06:36:33.945Z,102698.80
2019-02-27T06:39:02.574Z,102699.32
2019-02-27T06:41:31.601Z,102700.57
2019-02-27T06:44:01.606Z,102702.51
2019-02-27T06:46:30.440Z,102703.70
2019-02-27T06:48:58.918Z,102699.59
2019-02-27T06:51:27.441Z,102698.24
2019-02-27T06:53:55.996Z,102698.12
2019-02-27T06:56:24.588Z,102699.59
2019-02-27T06:58:53.110Z,102699.86
2019-02-27T07:01:21.766Z,102698.06
2019-02-27T07:03:50.365Z,102693.83
2019-02-27T07:06:21.293Z,102691.44
2019-02-27T07:08:49.236Z,102688.39
2019-02-27T07:11:17.792Z,102690.56
2019-02-27T07:13:46.495Z,102688.69
2019-02-27T07:16:15.036Z,102682.03
2019-02-27T07:18:43.632Z,102678.91
2019-02-27T07:21:12.371Z,102683.08
2019-02-27T07:23:41.046Z,102678.05
2019-02-27T07:26:09.683Z,102681.61
2019-02-27T07:28:38.193Z,102678.30
2019-02-27T07:31:06.844Z,102671.50
2019-02-27T07:33:37.982Z,102672.47
2019-02-27T07:36:05.763Z,102665.81
2019-02-27T07:38:34.333Z,102659.09
2019-02-27T07:41:03.105Z,102661.99
2019-02-27T07:43:32.329Z,102663.13
2019-02-27T07:46:00.941Z,102671.19
2019-02-27T07:48:29.484Z,102679.65
2019-02-27T07:50:58.020Z,102677.48
2019-02-27T07:53:26.663Z,102679.23
2019-02-27T07:55:55.350Z,102685.03
2019-02-27T07:58:23.756Z,102681.00
2019-02-27T08:00:52.370Z,102676.56
2019-02-27T08:03:20.951Z,102676.56
2019-02-27T08:05:49.441Z,102670.98
2019-02-27T08:08:18.061Z,102669.22
2019-02-27T08:10:46.672Z,102671.38
2019-02-27T08:13:15.464Z,102667.85
2019-02-27T08:15:44.143Z,102657.92
2019-02-27T08:18:12.871Z,102663.52
2019-02-27T08:20:41.626Z,102657.71
2019-02-27T08:23:10.275Z,102655.64
2019-02-27T08:25:38.776Z,102658.16
2019-02-27T08:28:07.410Z,102654.91
2019-02-27T08:30:35.996Z,102646.17
2019-02-27T08:33:08.132Z,102642.31
2019-02-27T08:35:35.509Z,102645.28
2019-02-27T08:38:04.944Z,102644.45
2019-02-27T08:40:33.586Z,102640.88
2019-02-27T08:43:03.106Z,102647.80
2019-02-27T08:45:31.696Z,102634.77
2019-02-27T08:48:00.251Z,102626.41
2019-02-27T08:50:31.498Z,102622.44
2019-02-27T08:52:59.069Z,102618.73
2019-02-27T08:55:27.692Z,102613.72
2019-02-27T08:57:57.102Z,102614.66
2019-02-27T09:00:28.785Z,102611.86
2019-02-27T09:03:02.510Z,102608.76
2019-02-27T09:05:27.718Z,102606.48
2019-02-27T09:07:56.311Z,102603.50
2019-02-27T09:10:30.593Z,102601.39
2019-02-27T09:13:05.518Z,102599.91
2019-02-27T09:15:28.801Z,102602.27
2019-02-27T09:17:59.155Z,102601.75
2019-02-27T09:20:27.675Z,102601.11
2019-02-27T09:22:56.132Z,102599.70
2019-02-27T09:25:25.049Z,102600.94
2019-02-27T09:27:53.727Z,102602.06
2019-02-27T09:30:29.331Z,102601.16
2019-02-27T09:32:56.396Z,102592.88
2019-02-27T09:35:24.994Z,102596.09
2019-02-27T09:38:12.943Z,102595.87
2019-02-27T09:40:41.449Z,102595.06
2019-02-27T09:43:11.622Z,102591.09
2019-02-27T09:45:40.501Z,102584.88
2019-02-27T09:48:09.002Z,102588.91
2019-02-27T09:50:48.936Z,102587.72
2019-02-27T09:53:17.721Z,102588.91
2019-02-27T09:55:46.320Z,102582.79
2019-02-27T09:58:15.021Z,102588.00
2019-02-27T10:00:48.311Z,102580.42
2019-02-27T10:03:20.034Z,102584.84
2019-02-27T10:05:47.850Z,102584.67
2019-02-27T10:08:16.827Z,102574.64
2019-02-27T10:10:46.080Z,102574.27
2019-02-27T10:13:14.796Z,102571.28
2019-02-27T10:15:43.422Z,102561.21
2019-02-27T10:18:11.996Z,102561.58
2019-02-27T10:20:40.587Z,102555.14
2019-02-27T10:23:09.171Z,102554.00
2019-02-27T10:25:37.971Z,102548.12
2019-02-27T10:28:06.790Z,102542.05
2019-02-27T10:30:35.393Z,102540.41
2019-02-27T10:33:04.218Z,102530.97
2019-02-27T10:35:34.674Z,102532.35
2019-02-27T10:38:03.229Z,102528.82
2019-02-27T10:40:31.859Z,102525.41
2019-02-27T10:43:00.530Z,102523.69
2019-02-27T10:45:29.115Z,102520.08
2019-02-27T10:47:57.594Z,102513.63
2019-02-27T10:50:26.199Z,102514.98
2019-02-27T10:52:54.782Z,102506.65
2019-02-27T10:55:24.489Z,102510.30
2019-02-27T10:57:53.274Z,102507.95
2019-02-27T11:00:31.179Z,102504.53
2019-02-27T11:03:03.546Z,102502.52
2019-02-27T11:05:37.636Z,102493.70
2019-02-27T11:08:06.349Z,102491.62
2019-02-27T11:10:35.032Z,102485.78
2019-02-27T11:13:06.698Z,102482.52
2019-02-27T11:15:34.921Z,102477.02
2019-02-27T11:18:05.627Z,102473.26
2019-02-27T11:20:34.718Z,102467.86
2019-02-27T11:23:06.400Z,102467.75
2019-02-27T11:25:33.674Z,102465.62
2019-02-27T11:28:02.288Z,102458.22
2019-02-27T11:30:38.667Z,102456.85
2019-02-27T11:33:07.323Z,102443.48
2019-02-27T11:35:35.943Z,102446.96
2019-02-27T11:38:04.931Z,102439.38
2019-02-27T11:40:33.564Z,102439.75
2019-02-27T11:43:06.358Z,102437.80
2019-02-27T11:45:33.186Z,102436.09
2019-02-27T11:48:01.725Z,102435.91
2019-02-27T11:50:30.304Z,102419.48
2019-02-27T11:53:01.924Z,102420.05
2019-02-27T11:55:29.173Z,102413.83
2019-02-27T11:57:58.083Z,102407.17
2019-02-27T12:00:31.343Z,102412.70
2019-02-27T12:03:00.099Z,102408.46
2019-02-27T12:05:33.730Z,102398.67
2019-02-27T12:07:59.363Z,102392.45
2019-02-27T12:10:32.420Z,102390.73
2019-02-27T12:13:01.655Z,102377.73
2019-02-27T12:15:30.398Z,102370.39
2019-02-27T12:18:00.439Z,102364.89
2019-02-27T12:20:29.353Z,102360.05
2019-02-27T12:22:58.058Z,102354.66
2019-02-27T12:25:29.232Z,102345.33
2019-02-27T12:27:57.569Z,102338.55
2019-02-27T12:30:28.391Z,102337.50
2019-02-27T12:32:57.323Z,102332.23
2019-02-27T12:35:36.219Z,102332.23
2019-02-27T12:38:08.242Z,102326.59
2019-02-27T12:40:36.670Z,102322.32
2019-02-27T12:43:05.711Z,102321.02
2019-02-27T12:45:34.472Z,102313.51
2019-02-27T12:48:03.053Z,102313.42
2019-02-27T12:50:31.742Z,102307.66
2019-02-27T12:53:00.449Z,102300.91
2019-02-27T12:55:29.020Z,102298.23
2019-02-27T12:57:57.569Z,102296.41
2019-02-27T13:00:30.527Z,102294.88
2019-02-27T13:02:59.685Z,102285.38
2019-02-27T13:05:28.807Z,102281.06
2019-02-27T13:07:57.389Z,102277.80
2019-02-27T13:10:34.196Z,102271.33
2019-02-27T13:12:59.782Z,102271.33
2019-02-27T13:15:30.121Z,102266.38
2019-02-27T13:17:59.014Z,102261.30
2019-02-27T13:20:28.731Z,102259.39
2019-02-27T13:22:57.345Z,102253.72
2019-02-27T13:25:25.972Z,102245.06
2019-02-27T13:27:54.469Z,102241.14
2019-02-27T13:30:24.355Z,102235.47
2019-02-27T13:32:53.229Z,102231.61
2019-02-27T13:35:23.110Z,102227.24
2019-02-27T13:37:52.568Z,102224.08
2019-02-27T13:40:29.240Z,102220.45
2019-02-27T13:42:58.034Z,102220.02
2019-02-27T13:45:31.069Z,102197.20
2019-02-27T13:48:04.948Z,102197.20
2019-02-27T13:50:30.239Z,102196.47
2019-02-27T13:52:58.816Z,102191.39
2019-02-27T13:55:27.373Z,102188.76
2019-02-27T13:57:58.783Z,102190.23
2019-02-27T14:00:30.422Z,102182.66
2019-02-27T14:02:59.085Z,102176.02
2019-02-27T14:05:29.439Z,102177.39
2019-02-27T14:07:59.302Z,102167.94
2019-02-27T14:10:34.564Z,102169.11
2019-02-27T14:13:03.292Z,102161.27
2019-02-27T14:15:32.093Z,102155.11
2019-02-27T14:18:00.844Z,102155.39
2019-02-27T14:20:29.589Z,102141.80
2019-02-27T14:22:58.369Z,102138.34
2019-02-27T14:25:32.598Z,102128.20
2019-02-27T14:27:59.155Z,102123.99
2019-02-27T14:30:36.645Z,102118.67
2019-02-27T14:33:05.305Z,102112.48
2019-02-27T14:35:36.331Z,102114.98
2019-02-27T14:38:04.335Z,102111.64
2019-02-27T14:40:37.782Z,102107.64
2019-02-27T14:43:03.248Z,102104.97
2019-02-27T14:45:31.851Z,102099.39
2019-02-27T14:48:00.500Z,102098.52
2019-02-27T14:50:33.587Z,102099.95
2019-02-27T14:52:59.517Z,102095.98
2019-02-27T14:55:28.237Z,102096.30
2019-02-27T14:57:56.895Z,102096.19
2019-02-27T15:00:30.917Z,102090.73
2019-02-27T15:02:59.548Z,102090.32
2019-02-27T15:05:28.341Z,102083.66
2019-02-27T15:07:56.993Z,102080.44
2019-02-27T15:10:26.078Z,102074.32
2019-02-27T15:12:55.641Z,102079.12
2019-02-27T15:15:32.134Z,102071.02
2019-02-27T15:18:01.463Z,102074.72
2019-02-27T15:20:30.753Z,102069.61
2019-02-27T15:22:59.483Z,102064.23
2019-02-27T15:25:28.299Z,102070.37
2019-02-27T15:27:58.821Z,102064.32
2019-02-27T15:30:32.404Z,102061.05
2019-02-27T15:33:04.335Z,102061.15
2019-02-27T15:35:31.325Z,102052.04
2019-02-27T15:38:00.161Z,102053.55
2019-02-27T15:40:30.333Z,102045.98
2019-02-27T15:42:59.022Z,102041.97
2019-02-27T15:45:28.632Z,102033.23
2019-02-27T15:47:57.460Z,102028.55
2019-02-27T15:50:30.138Z,102030.84
2019-02-27T15:53:00.107Z,102026.20
2019-02-27T15:55:32.761Z,102019.06
2019-02-27T15:57:59.427Z,102014.11
2019-02-27T16:00:28.898Z,102006.22
2019-02-27T16:02:57.609Z,102009.09
2019-02-27T16:05:30.028Z,101999.13
2019-02-27T16:07:56.685Z,101995.71
2019-02-27T16:10:26.508Z,101986.81
2019-02-27T16:12:59.669Z,101992.06
2019-02-27T16:15:25.771Z,101977.81
2019-02-27T16:17:54.538Z,101979.77
2019-02-27T16:20:26.808Z,101980.06
2019-02-27T16:22:55.252Z,101985.39
2019-02-27T16:25:24.807Z,101981.11
2019-02-27T16:27:53.384Z,101981.66
2019-02-27T16:30:24.893Z,101980.21
2019-02-27T16:32:53.744Z,101972.19
2019-02-27T16:35:22.528Z,101976.34
2019-02-27T16:37:56.582Z,101972.20
2019-02-27T16:40:22.797Z,101963.39
2019-02-27T16:42:51.704Z,101968.58
2019-02-27T16:45:22.713Z,101962.72
2019-02-27T16:47:53.974Z,101959.06
2019-02-27T16:50:24.748Z,101958.28
2019-02-27T16:52:57.389Z,101958.34
2019-02-27T16:55:28.004Z,101959.52
2019-02-27T16:57:57.589Z,101954.70
2019-02-27T17:00:28.947Z,101955.51
2019-02-27T17:02:57.583Z,101956.89
2019-02-27T17:05:26.277Z,101957.05
2019-02-27T17:08:00.207Z,101957.97
2019-02-27T17:10:32.978Z,101958.67
2019-02-27T17:13:01.580Z,101953.48
2019-02-27T17:15:34.724Z,101946.45
2019-02-27T17:18:00.523Z,101945.05
2019-02-27T17:20:29.584Z,101954.02
2019-02-27T17:22:58.395Z,101952.16
2019-02-27T17:25:30.008Z,101949.88
2019-02-27T17:27:57.419Z,101945.28
2019-02-27T17:30:28.466Z,101947.56
2019-02-27T17:32:57.001Z,101946.30
2019-02-27T17:35:26.825Z,101941.23
2019-02-27T17:37:55.439Z,101938.27
2019-02-27T17:40:24.139Z,101932.92
2019-02-27T17:42:53.506Z,101932.14
2019-02-27T17:45:25.396Z,101941.68
2019-02-27T17:47:54.092Z,101936.76
2019-02-27T17:50:23.110Z,101931.87
2019-02-27T17:52:51.892Z,101930.45
2019-02-27T17:55:20.538Z,101928.11
2019-02-27T17:57:49.486Z,101921.90
2019-02-27T18:00:22.231Z,101921.54
2019-02-27T18:02:50.839Z,101918.28
2019-02-27T18:05:22.356Z,101914.67
2019-02-27T18:07:49.808Z,101916.32
2019-02-27T18:10:18.398Z,101915.22
2019-02-27T18:12:47.032Z,101914.28
2019-02-27T18:15:21.418Z,101909.36
2019-02-27T18:17:50.063Z,101910.34
2019-02-27T18:20:24.452Z,101908.23
2019-02-27T18:22:50.291Z,101909.80
2019-02-27T18:25:19.326Z,101901.90
2019-02-27T18:27:48.163Z,101901.44
2019-02-27T18:30:21.121Z,101900.17
2019-02-27T18:32:50.065Z,101904.83
2019-02-27T18:35:19.589Z,101905.81
2019-02-27T18:37:53.338Z,101893.88
2019-02-27T18:40:19.670Z,101904.97
2019-02-27T18:42:48.286Z,101898.80
2019-02-27T18:45:18.684Z,101899.41
2019-02-27T18:47:47.326Z,101895.70
2019-02-27T18:50:16.569Z,101897.06
2019-02-27T18:52:45.205Z,101898.47
2019-02-27T18:55:15.451Z,101894.56
2019-02-27T18:57:47.226Z,101886.73
2019-02-27T19:00:21.206Z,101878.86
2019-02-27T19:02:52.015Z,101889.23
2019-02-27T19:05:22.083Z,101876.70
2019-02-27T19:07:53.621Z,101876.38
2019-02-27T19:10:21.371Z,101870.30
2019-02-27T19:12:49.948Z,101869.50
2019-02-27T19:15:23.678Z,101869.82
2019-02-27T19:17:52.372Z,101865.96
2019-02-27T19:20:29.803Z,101859.64
2019-02-27T19:23:00.347Z,101866.52
2019-02-27T19:25:34.328Z,101855.93
2019-02-27T19:27:59.045Z,101856.98
2019-02-27T19:30:28.061Z,101857.37
2019-02-27T19:33:01.582Z,101853.97
2019-02-27T19:35:27.717Z,101856.38
2019-02-27T19:37:56.266Z,101848.67
2019-02-27T19:40:30.076Z,101848.07
2019-02-27T19:42:57.324Z,101848.07
2019-02-27T19:45:26.006Z,101850.85
2019-02-27T19:47:55.867Z,101852.30
2019-02-27T19:50:24.797Z,101852.30
2019-02-27T19:52:53.474Z,101853.86
2019-02-27T19:55:26.266Z,101847.11
2019-02-27T19:57:52.747Z,101850.32
2019-02-27T20:00:33.747Z,101844.25
2019-02-27T20:03:01.534Z,101841.41
2019-02-27T20:05:30.303Z,101837.06
2019-02-27T20:07:58.952Z,101838.55
2019-02-27T20:10:30.967Z,101839.92
2019-02-27T20:12:57.994Z,101835.19
2019-02-27T20:15:27.561Z,101833.59
2019-02-27T20:17:56.357Z,101834.88
2019-02-27T20:20:25.862Z,101832.78
2019-02-27T20:22:55.456Z,101831.98
2019-02-27T20:25:29.205Z,101837.62
2019-02-27T20:27:58.874Z,101828.49
2019-02-27T20:30:27.600Z,101826.65
2019-02-27T20:32:56.415Z,101824.92
2019-02-27T20:35:24.947Z,101830.23
2019-02-27T20:37:53.584Z,101826.11
2019-02-27T20:40:22.313Z,101826.19
2019-02-27T20:42:54.842Z,101821.85
2019-02-27T20:45:22.319Z,101821.34
2019-02-27T20:47:57.771Z,101815.08
2019-02-27T20:50:35.293Z,101816.99
2019-02-27T20:53:04.919Z,101815.86
2019-02-27T20:55:33.503Z,101816.74
2019-02-27T20:58:02.130Z,101809.99
2019-02-27T21:00:36.119Z,101815.82
2019-02-27T21:03:02.585Z,101805.44
2019-02-27T21:05:31.776Z,101801.35
2019-02-27T21:08:01.956Z,101801.89
2019-02-27T21:10:33.213Z,101808.84
2019-02-27T21:13:01.918Z,101805.85
2019-02-27T21:15:32.589Z,101805.63
2019-02-27T21:18:00.978Z,101805.63
2019-02-27T21:20:33.274Z,101800.19
2019-02-27T21:23:02.110Z,101800.10
2019-02-27T21:25:30.579Z,101802.63
2019-02-27T21:27:59.153Z,101799.50
2019-02-27T21:30:27.766Z,101807.06
2019-02-27T21:32:56.392Z,101803.23
2019-02-27T21:35:28.922Z,101800.06
2019-02-27T21:37:55.383Z,101803.61
2019-02-27T21:40:23.930Z,101800.70
2019-02-27T21:42:52.539Z,101803.16
2019-02-27T21:45:22.357Z,101799.25
2019-02-27T21:47:52.651Z,101804.13
2019-02-27T21:50:23.520Z,101802.33
2019-02-27T21:52:54.325Z,101799.61
2019-02-27T21:55:22.764Z,101800.03
2019-02-27T21:57:51.448Z,101806.03
2019-02-27T22:00:28.900Z,101810.82
2019-02-27T22:03:04.008Z,101806.31
2019-02-27T22:05:29.068Z,101807.22
2019-02-27T22:07:57.769Z,101799.89
2019-02-27T22:10:26.499Z,101798.56
2019-02-27T22:12:55.108Z,101801.88
2019-02-27T22:15:28.753Z,101795.36
2019-02-27T22:17:57.447Z,101800.33
2019-02-27T22:20:27.005Z,101799.78
2019-02-27T22:22:55.601Z,101793.84
2019-02-27T22:25:24.250Z,101794.94
2019-02-27T22:27:52.847Z,101792.02
2019-02-27T22:30:22.480Z,101788.00
2019-02-27T22:32:51.177Z,101790.59
2019-02-27T22:35:19.771Z,101783.63
2019-02-27T22:37:51.587Z,101783.34
2019-02-27T22:40:23.419Z,101778.20
2019-02-27T22:42:58.898Z,101779.22
2019-02-27T22:45:27.580Z,101780.03
2019-02-27T22:47:57.585Z,101776.04
2019-02-27T22:50:26.246Z,101777.19
2019-02-27T22:52:55.432Z,101779.22
2019-02-27T22:55:24.126Z,101777.82
2019-02-27T22:57:54.828Z,101775.75
2019-02-27T23:00:56.252Z,101774.68
2019-02-27T23:03:37.180Z,101770.10
2019-02-27T23:06:06.246Z,101765.08
2019-02-27T23:08:35.099Z,101765.08
2019-02-27T23:11:03.851Z,101764.89
2019-02-27T23:13:32.570Z,101759.22
2019-02-27T23:16:01.186Z,101753.53
2019-02-27T23:18:30.603Z,101759.54
2019-02-27T23:20:59.267Z,101757.05
2019-02-27T23:23:27.822Z,101758.12
2019-02-27T23:25:56.530Z,101766.80
2019-02-27T23:28:25.152Z,101757.86
2019-02-27T23:30:55.950Z,101759.77
2019-02-27T23:33:24.741Z,101756.50
2019-02-27T23:35:53.332Z,101758.41
2019-02-27T23:38:21.922Z,101758.53
2019-02-27T23:40:50.514Z,101753.98
2019-02-27T23:43:19.732Z,101751.63
2019-02-27T23:45:48.728Z,101746.73
2019-02-27T23:48:17.261Z,101749.21
2019-02-27T23:50:45.832Z,101747.15
2019-02-27T23:53:15.249Z,101744.53
2019-02-27T23:55:44.598Z,101749.47
2019-02-27T23:58:14.992Z,101749.00
